sensor_id;sensor_type;location;lat;lon;timestamp;P1;durP1;ratioP1;P2;durP2;ratioP2
56752;SDS011;42627;42.646;23.642;2023-03-15T00:01:52;4.55;;;2.63;;
56752;SDS011;42627;42.646;23.642;2023-03-15T00:03:53;6.43;;;3.35;;
56752;SDS011;42627;42.646;23.642;2023-03-15T00:05:54;4.53;;;2.35;;
56752;SDS011;42627;42.646;23.642;2023-03-15T00:07:59;17.42;;;4.18;;
56752;SDS011;42627;42.646;23.642;2023-03-15T00:10:00;5.22;;;2.72;;
56752;SDS011;42627;42.646;23.642;2023-03-15T00:12:01;8.35;;;3.28;;
56752;SDS011;42627;42.646;23.642;2023-03-15T00:14:02;6.68;;;2.13;;
56752;SDS011;42627;42.646;23.642;2023-03-15T00:16:03;6.30;;;2.85;;
56752;SDS011;42627;42.646;23.642;2023-03-15T00:20:41;6.38;;;2.55;;
56752;SDS011;42627;42.646;23.642;2023-03-15T00:22:47;3.67;;;1.88;;
56752;SDS011;42627;42.646;23.642;2023-03-15T00:24:48;4.75;;;1.95;;
56752;SDS011;42627;42.646;23.642;2023-03-15T00:26:49;3.30;;;1.83;;
56752;SDS011;42627;42.646;23.642;2023-03-15T00:28:49;6.60;;;2.28;;
56752;SDS011;42627;42.646;23.642;2023-03-15T00:30:58;3.58;;;1.83;;
56752;SDS011;42627;42.646;23.642;2023-03-15T00:33:02;4.15;;;1.70;;
56752;SDS011;42627;42.646;23.642;2023-03-15T00:35:04;6.45;;;1.80;;
56752;SDS011;42627;42.646;23.642;2023-03-15T00:37:05;3.50;;;1.60;;
56752;SDS011;42627;42.646;23.642;2023-03-15T00:39:06;3.38;;;1.83;;
56752;SDS011;42627;42.646;23.642;2023-03-15T00:41:07;3.33;;;1.70;;
56752;SDS011;42627;42.646;23.642;2023-03-15T00:43:11;3.20;;;1.52;;
56752;SDS011;42627;42.646;23.642;2023-03-15T00:49:47;2.95;;;1.35;;
56752;SDS011;42627;42.646;23.642;2023-03-15T00:51:55;4.00;;;1.45;;
56752;SDS011;42627;42.646;23.642;2023-03-15T00:53:56;4.30;;;1.70;;
56752;SDS011;42627;42.646;23.642;2023-03-15T00:55:56;2.83;;;1.27;;
56752;SDS011;42627;42.646;23.642;2023-03-15T00:57:57;3.08;;;1.63;;
56752;SDS011;42627;42.646;23.642;2023-03-15T00:59:58;2.58;;;1.30;;
56752;SDS011;42627;42.646;23.642;2023-03-15T01:02:02;3.53;;;1.75;;
56752;SDS011;42627;42.646;23.642;2023-03-15T01:04:06;3.45;;;1.70;;
56752;SDS011;42627;42.646;23.642;2023-03-15T01:06:17;3.70;;;1.60;;
56752;SDS011;42627;42.646;23.642;2023-03-15T01:08:19;6.22;;;2.00;;
56752;SDS011;42627;42.646;23.642;2023-03-15T01:10:23;5.95;;;1.77;;
56752;SDS011;42627;42.646;23.642;2023-03-15T01:12:23;5.55;;;1.75;;
56752;SDS011;42627;42.646;23.642;2023-03-15T01:14:24;2.83;;;1.40;;
56752;SDS011;42627;42.646;23.642;2023-03-15T01:16:30;4.50;;;2.08;;
56752;SDS011;42627;42.646;23.642;2023-03-15T01:18:46;4.97;;;1.85;;
56752;SDS011;42627;42.646;23.642;2023-03-15T01:20:59;4.97;;;1.88;;
56752;SDS011;42627;42.646;23.642;2023-03-15T01:23:00;3.08;;;1.95;;
56752;SDS011;42627;42.646;23.642;2023-03-15T01:25:00;3.38;;;1.88;;
56752;SDS011;42627;42.646;23.642;2023-03-15T01:27:01;3.58;;;2.00;;
56752;SDS011;42627;42.646;23.642;2023-03-15T01:29:02;3.58;;;1.95;;
56752;SDS011;42627;42.646;23.642;2023-03-15T01:31:05;6.15;;;2.50;;
56752;SDS011;42627;42.646;23.642;2023-03-15T01:35:09;6.05;;;2.20;;
56752;SDS011;42627;42.646;23.642;2023-03-15T01:37:09;9.27;;;2.63;;
56752;SDS011;42627;42.646;23.642;2023-03-15T01:39:13;5.90;;;2.28;;
56752;SDS011;42627;42.646;23.642;2023-03-15T01:41:14;3.58;;;2.00;;
56752;SDS011;42627;42.646;23.642;2023-03-15T01:43:17;5.88;;;2.30;;
56752;SDS011;42627;42.646;23.642;2023-03-15T01:50:56;6.80;;;3.05;;
56752;SDS011;42627;42.646;23.642;2023-03-15T01:52:57;10.30;;;3.13;;
56752;SDS011;42627;42.646;23.642;2023-03-15T01:55:00;4.82;;;2.42;;
56752;SDS011;42627;42.646;23.642;2023-03-15T01:57:12;9.43;;;3.05;;
56752;SDS011;42627;42.646;23.642;2023-03-15T01:59:19;6.50;;;2.25;;
56752;SDS011;42627;42.646;23.642;2023-03-15T02:01:29;6.32;;;2.03;;
56752;SDS011;42627;42.646;23.642;2023-03-15T02:03:33;3.83;;;1.70;;
56752;SDS011;42627;42.646;23.642;2023-03-15T02:05:47;3.42;;;2.03;;
56752;SDS011;42627;42.646;23.642;2023-03-15T02:07:53;3.75;;;1.90;;
56752;SDS011;42627;42.646;23.642;2023-03-15T02:10:08;3.40;;;2.00;;
56752;SDS011;42627;42.646;23.642;2023-03-15T02:14:12;3.47;;;1.80;;
56752;SDS011;42627;42.646;23.642;2023-03-15T02:19:01;3.60;;;1.90;;
56752;SDS011;42627;42.646;23.642;2023-03-15T02:23:49;3.35;;;2.00;;
56752;SDS011;42627;42.646;23.642;2023-03-15T02:26:36;4.25;;;2.10;;
56752;SDS011;42627;42.646;23.642;2023-03-15T02:28:36;4.32;;;1.90;;
56752;SDS011;42627;42.646;23.642;2023-03-15T02:30:37;3.17;;;1.90;;
56752;SDS011;42627;42.646;23.642;2023-03-15T02:32:38;5.88;;;2.22;;
56752;SDS011;42627;42.646;23.642;2023-03-15T02:36:50;8.18;;;2.67;;
56752;SDS011;42627;42.646;23.642;2023-03-15T02:38:53;5.65;;;2.65;;
56752;SDS011;42627;42.646;23.642;2023-03-15T02:40:54;3.10;;;1.67;;
56752;SDS011;42627;42.646;23.642;2023-03-15T02:43:09;3.35;;;1.90;;
56752;SDS011;42627;42.646;23.642;2023-03-15T02:45:20;4.35;;;1.75;;
56752;SDS011;42627;42.646;23.642;2023-03-15T02:52:12;3.28;;;1.63;;
56752;SDS011;42627;42.646;23.642;2023-03-15T02:54:13;4.25;;;1.90;;
56752;SDS011;42627;42.646;23.642;2023-03-15T02:56:14;4.60;;;1.52;;
56752;SDS011;42627;42.646;23.642;2023-03-15T02:58:15;4.10;;;1.55;;
56752;SDS011;42627;42.646;23.642;2023-03-15T03:00:16;3.78;;;1.98;;
56752;SDS011;42627;42.646;23.642;2023-03-15T03:02:17;4.57;;;2.90;;
56752;SDS011;42627;42.646;23.642;2023-03-15T03:04:33;4.30;;;2.90;;
56752;SDS011;42627;42.646;23.642;2023-03-15T03:06:33;3.05;;;1.90;;
56752;SDS011;42627;42.646;23.642;2023-03-15T03:08:34;6.20;;;2.17;;
56752;SDS011;42627;42.646;23.642;2023-03-15T03:10:35;4.57;;;1.75;;
56752;SDS011;42627;42.646;23.642;2023-03-15T03:12:35;5.13;;;2.40;;
56752;SDS011;42627;42.646;23.642;2023-03-15T03:14:45;4.72;;;1.83;;
56752;SDS011;42627;42.646;23.642;2023-03-15T03:17:04;8.07;;;2.80;;
56752;SDS011;42627;42.646;23.642;2023-03-15T03:19:16;6.05;;;3.03;;
56752;SDS011;42627;42.646;23.642;2023-03-15T03:21:17;11.13;;;3.65;;
56752;SDS011;42627;42.646;23.642;2023-03-15T03:23:18;8.80;;;3.47;;
56752;SDS011;42627;42.646;23.642;2023-03-15T03:25:18;7.03;;;3.35;;
56752;SDS011;42627;42.646;23.642;2023-03-15T03:27:19;7.88;;;3.70;;
56752;SDS011;42627;42.646;23.642;2023-03-15T03:29:20;4.80;;;2.35;;
56752;SDS011;42627;42.646;23.642;2023-03-15T03:31:22;12.30;;;3.53;;
56752;SDS011;42627;42.646;23.642;2023-03-15T03:33:24;8.95;;;3.50;;
56752;SDS011;42627;42.646;23.642;2023-03-15T03:35:25;5.88;;;2.25;;
56752;SDS011;42627;42.646;23.642;2023-03-15T03:37:25;4.90;;;2.30;;
56752;SDS011;42627;42.646;23.642;2023-03-15T03:39:26;6.25;;;2.22;;
56752;SDS011;42627;42.646;23.642;2023-03-15T03:41:27;5.88;;;2.33;;
56752;SDS011;42627;42.646;23.642;2023-03-15T03:43:28;3.20;;;1.63;;
56752;SDS011;42627;42.646;23.642;2023-03-15T03:48:03;3.35;;;1.60;;
56752;SDS011;42627;42.646;23.642;2023-03-15T03:50:09;3.10;;;2.00;;
56752;SDS011;42627;42.646;23.642;2023-03-15T03:52:10;1.98;;;1.20;;
56752;SDS011;42627;42.646;23.642;2023-03-15T03:54:11;3.85;;;1.80;;
56752;SDS011;42627;42.646;23.642;2023-03-15T03:56:12;3.38;;;1.75;;
56752;SDS011;42627;42.646;23.642;2023-03-15T03:58:12;3.58;;;1.63;;
56752;SDS011;42627;42.646;23.642;2023-03-15T04:00:13;2.65;;;2.00;;
56752;SDS011;42627;42.646;23.642;2023-03-15T04:02:17;5.70;;;2.50;;
56752;SDS011;42627;42.646;23.642;2023-03-15T04:04:18;4.72;;;2.25;;
56752;SDS011;42627;42.646;23.642;2023-03-15T04:06:18;6.60;;;2.55;;
56752;SDS011;42627;42.646;23.642;2023-03-15T04:08:21;6.65;;;2.85;;
56752;SDS011;42627;42.646;23.642;2023-03-15T04:10:23;6.25;;;3.17;;
56752;SDS011;42627;42.646;23.642;2023-03-15T04:12:26;4.78;;;2.65;;
56752;SDS011;42627;42.646;23.642;2023-03-15T04:19:20;11.95;;;3.67;;
56752;SDS011;42627;42.646;23.642;2023-03-15T04:21:20;10.52;;;3.67;;
56752;SDS011;42627;42.646;23.642;2023-03-15T04:23:22;7.93;;;3.90;;
56752;SDS011;42627;42.646;23.642;2023-03-15T04:25:23;9.50;;;4.38;;
56752;SDS011;42627;42.646;23.642;2023-03-15T04:27:25;5.70;;;2.72;;
56752;SDS011;42627;42.646;23.642;2023-03-15T04:29:26;4.50;;;2.25;;
56752;SDS011;42627;42.646;23.642;2023-03-15T04:31:27;6.95;;;2.28;;
56752;SDS011;42627;42.646;23.642;2023-03-15T04:33:37;5.70;;;2.55;;
56752;SDS011;42627;42.646;23.642;2023-03-15T04:35:38;6.63;;;2.00;;
56752;SDS011;42627;42.646;23.642;2023-03-15T04:37:38;5.55;;;1.88;;
56752;SDS011;42627;42.646;23.642;2023-03-15T04:39:41;4.43;;;2.35;;
56752;SDS011;42627;42.646;23.642;2023-03-15T04:41:42;3.55;;;2.03;;
56752;SDS011;42627;42.646;23.642;2023-03-15T04:44:01;4.15;;;1.88;;
56752;SDS011;42627;42.646;23.642;2023-03-15T04:48:44;3.85;;;1.95;;
56752;SDS011;42627;42.646;23.642;2023-03-15T04:50:44;2.70;;;1.75;;
56752;SDS011;42627;42.646;23.642;2023-03-15T04:52:45;4.57;;;2.10;;
56752;SDS011;42627;42.646;23.642;2023-03-15T04:54:45;6.95;;;2.97;;
56752;SDS011;42627;42.646;23.642;2023-03-15T04:56:46;27.45;;;7.32;;
56752;SDS011;42627;42.646;23.642;2023-03-15T04:58:47;14.50;;;4.68;;
56752;SDS011;42627;42.646;23.642;2023-03-15T05:00:47;6.32;;;3.47;;
56752;SDS011;42627;42.646;23.642;2023-03-15T05:02:48;11.90;;;4.13;;
56752;SDS011;42627;42.646;23.642;2023-03-15T05:04:57;7.90;;;3.90;;
56752;SDS011;42627;42.646;23.642;2023-03-15T05:06:58;13.95;;;4.40;;
56752;SDS011;42627;42.646;23.642;2023-03-15T05:08:58;6.65;;;2.05;;
56752;SDS011;42627;42.646;23.642;2023-03-15T05:10:59;7.50;;;2.90;;
56752;SDS011;42627;42.646;23.642;2023-03-15T05:15:29;9.57;;;3.65;;
56752;SDS011;42627;42.646;23.642;2023-03-15T05:18:04;5.30;;;2.70;;
56752;SDS011;42627;42.646;23.642;2023-03-15T05:20:05;4.35;;;2.50;;
56752;SDS011;42627;42.646;23.642;2023-03-15T05:22:12;10.07;;;3.63;;
56752;SDS011;42627;42.646;23.642;2023-03-15T05:24:13;11.05;;;3.80;;
56752;SDS011;42627;42.646;23.642;2023-03-15T05:26:14;9.40;;;4.20;;
56752;SDS011;42627;42.646;23.642;2023-03-15T05:28:17;8.82;;;3.63;;
56752;SDS011;42627;42.646;23.642;2023-03-15T05:30:18;13.85;;;6.25;;
56752;SDS011;42627;42.646;23.642;2023-03-15T05:32:20;7.18;;;3.45;;
56752;SDS011;42627;42.646;23.642;2023-03-15T05:34:30;6.65;;;2.70;;
56752;SDS011;42627;42.646;23.642;2023-03-15T05:36:32;3.35;;;2.00;;
56752;SDS011;42627;42.646;23.642;2023-03-15T05:38:34;6.82;;;2.67;;
56752;SDS011;42627;42.646;23.642;2023-03-15T05:40:36;3.72;;;2.22;;
56752;SDS011;42627;42.646;23.642;2023-03-15T05:42:37;6.25;;;3.33;;
56752;SDS011;42627;42.646;23.642;2023-03-15T05:44:56;7.88;;;2.67;;
56752;SDS011;42627;42.646;23.642;2023-03-15T05:47:09;5.05;;;2.50;;
56752;SDS011;42627;42.646;23.642;2023-03-15T05:49:14;5.47;;;2.38;;
56752;SDS011;42627;42.646;23.642;2023-03-15T05:51:15;8.70;;;3.33;;
56752;SDS011;42627;42.646;23.642;2023-03-15T05:57:38;4.05;;;2.22;;
56752;SDS011;42627;42.646;23.642;2023-03-15T05:59:39;5.57;;;2.15;;
56752;SDS011;42627;42.646;23.642;2023-03-15T06:01:40;4.85;;;1.85;;
56752;SDS011;42627;42.646;23.642;2023-03-15T06:03:41;3.80;;;2.17;;
56752;SDS011;42627;42.646;23.642;2023-03-15T06:05:42;4.90;;;2.25;;
56752;SDS011;42627;42.646;23.642;2023-03-15T06:07:43;3.70;;;2.25;;
56752;SDS011;42627;42.646;23.642;2023-03-15T06:09:45;6.03;;;2.47;;
56752;SDS011;42627;42.646;23.642;2023-03-15T06:11:46;4.07;;;2.20;;
56752;SDS011;42627;42.646;23.642;2023-03-15T06:18:40;6.40;;;2.85;;
56752;SDS011;42627;42.646;23.642;2023-03-15T06:20:42;5.78;;;3.30;;
56752;SDS011;42627;42.646;23.642;2023-03-15T06:22:43;5.88;;;2.95;;
56752;SDS011;42627;42.646;23.642;2023-03-15T06:24:44;6.80;;;2.63;;
56752;SDS011;42627;42.646;23.642;2023-03-15T06:26:45;7.07;;;3.55;;
56752;SDS011;42627;42.646;23.642;2023-03-15T06:28:46;8.38;;;3.20;;
56752;SDS011;42627;42.646;23.642;2023-03-15T06:30:47;5.80;;;2.45;;
56752;SDS011;42627;42.646;23.642;2023-03-15T06:32:48;5.88;;;3.10;;
56752;SDS011;42627;42.646;23.642;2023-03-15T06:34:49;6.03;;;2.40;;
56752;SDS011;42627;42.646;23.642;2023-03-15T06:36:50;4.93;;;2.35;;
56752;SDS011;42627;42.646;23.642;2023-03-15T06:38:51;4.35;;;1.80;;
56752;SDS011;42627;42.646;23.642;2023-03-15T06:40:53;4.55;;;2.25;;
56752;SDS011;42627;42.646;23.642;2023-03-15T06:42:55;2.55;;;1.27;;
56752;SDS011;42627;42.646;23.642;2023-03-15T06:44:56;3.38;;;1.75;;
56752;SDS011;42627;42.646;23.642;2023-03-15T06:46:57;3.40;;;1.52;;
56752;SDS011;42627;42.646;23.642;2023-03-15T06:48:58;4.68;;;1.90;;
56752;SDS011;42627;42.646;23.642;2023-03-15T06:50:59;6.22;;;1.80;;
56752;SDS011;42627;42.646;23.642;2023-03-15T06:53:00;7.72;;;3.08;;
56752;SDS011;42627;42.646;23.642;2023-03-15T06:55:03;5.63;;;2.95;;
56752;SDS011;42627;42.646;23.642;2023-03-15T06:57:04;8.93;;;4.22;;
56752;SDS011;42627;42.646;23.642;2023-03-15T06:59:05;7.75;;;3.38;;
56752;SDS011;42627;42.646;23.642;2023-03-15T07:01:07;15.02;;;5.10;;
56752;SDS011;42627;42.646;23.642;2023-03-15T07:03:08;10.15;;;3.60;;
56752;SDS011;42627;42.646;23.642;2023-03-15T07:05:09;9.00;;;4.78;;
56752;SDS011;42627;42.646;23.642;2023-03-15T07:07:10;8.90;;;4.68;;
56752;SDS011;42627;42.646;23.642;2023-03-15T07:09:12;10.80;;;3.00;;
56752;SDS011;42627;42.646;23.642;2023-03-15T07:11:13;4.60;;;2.50;;
56752;SDS011;42627;42.646;23.642;2023-03-15T07:13:14;6.32;;;3.05;;
56752;SDS011;42627;42.646;23.642;2023-03-15T07:15:15;10.02;;;2.47;;
56752;SDS011;42627;42.646;23.642;2023-03-15T07:17:16;7.00;;;2.95;;
56752;SDS011;42627;42.646;23.642;2023-03-15T07:19:20;7.53;;;2.45;;
56752;SDS011;42627;42.646;23.642;2023-03-15T07:21:21;3.47;;;1.85;;
56752;SDS011;42627;42.646;23.642;2023-03-15T07:23:22;5.32;;;1.88;;
56752;SDS011;42627;42.646;23.642;2023-03-15T07:25:23;13.63;;;5.22;;
56752;SDS011;42627;42.646;23.642;2023-03-15T07:27:25;16.85;;;6.68;;
56752;SDS011;42627;42.646;23.642;2023-03-15T07:29:26;10.55;;;5.60;;
56752;SDS011;42627;42.646;23.642;2023-03-15T07:31:27;7.03;;;3.42;;
56752;SDS011;42627;42.646;23.642;2023-03-15T07:33:29;5.10;;;2.50;;
56752;SDS011;42627;42.646;23.642;2023-03-15T07:35:30;5.93;;;2.67;;
56752;SDS011;42627;42.646;23.642;2023-03-15T07:37:31;5.82;;;2.58;;
56752;SDS011;42627;42.646;23.642;2023-03-15T07:39:32;7.47;;;3.10;;
56752;SDS011;42627;42.646;23.642;2023-03-15T07:41:33;4.78;;;1.80;;
56752;SDS011;42627;42.646;23.642;2023-03-15T07:43:34;5.28;;;1.80;;
56752;SDS011;42627;42.646;23.642;2023-03-15T07:45:35;6.05;;;2.45;;
56752;SDS011;42627;42.646;23.642;2023-03-15T07:47:36;4.45;;;2.03;;
56752;SDS011;42627;42.646;23.642;2023-03-15T07:49:37;3.65;;;1.77;;
56752;SDS011;42627;42.646;23.642;2023-03-15T07:51:38;5.65;;;1.80;;
56752;SDS011;42627;42.646;23.642;2023-03-15T07:53:39;7.32;;;2.08;;
56752;SDS011;42627;42.646;23.642;2023-03-15T07:55:40;2.88;;;1.50;;
56752;SDS011;42627;42.646;23.642;2023-03-15T07:57:41;5.40;;;1.60;;
56752;SDS011;42627;42.646;23.642;2023-03-15T07:59:42;3.15;;;1.60;;
56752;SDS011;42627;42.646;23.642;2023-03-15T08:01:43;4.57;;;1.67;;
56752;SDS011;42627;42.646;23.642;2023-03-15T08:03:44;2.88;;;1.45;;
56752;SDS011;42627;42.646;23.642;2023-03-15T08:05:45;3.85;;;1.50;;
56752;SDS011;42627;42.646;23.642;2023-03-15T08:07:46;7.20;;;1.50;;
56752;SDS011;42627;42.646;23.642;2023-03-15T08:09:47;5.18;;;1.63;;
56752;SDS011;42627;42.646;23.642;2023-03-15T08:11:48;2.55;;;1.42;;
56752;SDS011;42627;42.646;23.642;2023-03-15T08:13:50;3.45;;;1.85;;
56752;SDS011;42627;42.646;23.642;2023-03-15T08:15:51;3.58;;;1.73;;
56752;SDS011;42627;42.646;23.642;2023-03-15T08:17:52;4.22;;;1.67;;
56752;SDS011;42627;42.646;23.642;2023-03-15T08:19:52;2.47;;;1.30;;
56752;SDS011;42627;42.646;23.642;2023-03-15T08:21:53;3.08;;;1.80;;
56752;SDS011;42627;42.646;23.642;2023-03-15T08:23:53;4.28;;;1.80;;
56752;SDS011;42627;42.646;23.642;2023-03-15T08:25:54;4.70;;;2.20;;
56752;SDS011;42627;42.646;23.642;2023-03-15T08:27:56;4.05;;;1.60;;
56752;SDS011;42627;42.646;23.642;2023-03-15T08:29:57;3.05;;;1.55;;
56752;SDS011;42627;42.646;23.642;2023-03-15T08:31:58;3.47;;;1.85;;
56752;SDS011;42627;42.646;23.642;2023-03-15T08:33:59;4.82;;;1.85;;
56752;SDS011;42627;42.646;23.642;2023-03-15T08:36:00;4.20;;;1.60;;
56752;SDS011;42627;42.646;23.642;2023-03-15T08:38:01;4.60;;;1.95;;
56752;SDS011;42627;42.646;23.642;2023-03-15T08:40:02;6.50;;;2.30;;
56752;SDS011;42627;42.646;23.642;2023-03-15T08:42:08;2.25;;;1.50;;
56752;SDS011;42627;42.646;23.642;2023-03-15T08:44:09;4.75;;;1.60;;
56752;SDS011;42627;42.646;23.642;2023-03-15T08:46:10;3.45;;;1.83;;
56752;SDS011;42627;42.646;23.642;2023-03-15T08:48:11;4.22;;;1.83;;
56752;SDS011;42627;42.646;23.642;2023-03-15T08:50:13;3.28;;;1.73;;
56752;SDS011;42627;42.646;23.642;2023-03-15T08:52:15;4.70;;;2.22;;
56752;SDS011;42627;42.646;23.642;2023-03-15T08:54:15;3.10;;;1.63;;
56752;SDS011;42627;42.646;23.642;2023-03-15T08:56:16;5.22;;;1.70;;
56752;SDS011;42627;42.646;23.642;2023-03-15T08:58:17;8.75;;;1.75;;
56752;SDS011;42627;42.646;23.642;2023-03-15T09:00:18;3.78;;;1.42;;
56752;SDS011;42627;42.646;23.642;2023-03-15T09:02:26;4.43;;;1.65;;
56752;SDS011;42627;42.646;23.642;2023-03-15T09:04:27;6.57;;;2.13;;
56752;SDS011;42627;42.646;23.642;2023-03-15T09:06:28;3.80;;;1.83;;
56752;SDS011;42627;42.646;23.642;2023-03-15T09:08:30;4.38;;;1.80;;
56752;SDS011;42627;42.646;23.642;2023-03-15T09:10:34;5.72;;;2.40;;
56752;SDS011;42627;42.646;23.642;2023-03-15T09:12:35;3.55;;;1.60;;
56752;SDS011;42627;42.646;23.642;2023-03-15T09:14:36;3.22;;;1.73;;
56752;SDS011;42627;42.646;23.642;2023-03-15T09:16:37;6.30;;;2.10;;
56752;SDS011;42627;42.646;23.642;2023-03-15T09:18:37;5.10;;;2.20;;
56752;SDS011;42627;42.646;23.642;2023-03-15T09:20:40;5.25;;;1.80;;
56752;SDS011;42627;42.646;23.642;2023-03-15T09:22:41;6.45;;;2.05;;
56752;SDS011;42627;42.646;23.642;2023-03-15T09:24:42;4.18;;;2.53;;
56752;SDS011;42627;42.646;23.642;2023-03-15T09:26:43;8.10;;;2.88;;
56752;SDS011;42627;42.646;23.642;2023-03-15T09:28:44;5.90;;;2.22;;
56752;SDS011;42627;42.646;23.642;2023-03-15T09:30:44;5.07;;;2.40;;
56752;SDS011;42627;42.646;23.642;2023-03-15T09:32:45;5.13;;;2.30;;
56752;SDS011;42627;42.646;23.642;2023-03-15T09:34:46;5.50;;;2.53;;
56752;SDS011;42627;42.646;23.642;2023-03-15T09:36:47;5.05;;;2.40;;
56752;SDS011;42627;42.646;23.642;2023-03-15T09:38:51;4.82;;;2.35;;
56752;SDS011;42627;42.646;23.642;2023-03-15T09:40:56;7.82;;;2.60;;
56752;SDS011;42627;42.646;23.642;2023-03-15T09:59:03;5.78;;;3.20;;
56752;SDS011;42627;42.646;23.642;2023-03-15T10:01:05;4.75;;;2.17;;
56752;SDS011;42627;42.646;23.642;2023-03-15T10:03:14;3.25;;;1.70;;
56752;SDS011;42627;42.646;23.642;2023-03-15T10:05:38;6.00;;;1.73;;
56752;SDS011;42627;42.646;23.642;2023-03-15T10:07:40;6.07;;;2.63;;
56752;SDS011;42627;42.646;23.642;2023-03-15T10:09:41;3.80;;;1.75;;
56752;SDS011;42627;42.646;23.642;2023-03-15T10:12:02;3.63;;;1.67;;
56752;SDS011;42627;42.646;23.642;2023-03-15T10:14:24;6.13;;;2.58;;
56752;SDS011;42627;42.646;23.642;2023-03-15T10:16:40;7.40;;;3.23;;
56752;SDS011;42627;42.646;23.642;2023-03-15T10:18:56;3.38;;;1.52;;
56752;SDS011;42627;42.646;23.642;2023-03-15T10:21:05;5.63;;;1.88;;
56752;SDS011;42627;42.646;23.642;2023-03-15T10:25:21;4.28;;;1.80;;
56752;SDS011;42627;42.646;23.642;2023-03-15T10:27:36;6.05;;;2.10;;
56752;SDS011;42627;42.646;23.642;2023-03-15T10:29:41;5.85;;;3.17;;
56752;SDS011;42627;42.646;23.642;2023-03-15T10:31:43;5.78;;;2.70;;
56752;SDS011;42627;42.646;23.642;2023-03-15T10:33:46;9.60;;;2.25;;
56752;SDS011;42627;42.646;23.642;2023-03-15T10:35:48;6.57;;;2.80;;
56752;SDS011;42627;42.646;23.642;2023-03-15T10:37:49;6.10;;;2.45;;
56752;SDS011;42627;42.646;23.642;2023-03-15T10:39:52;4.47;;;2.28;;
56752;SDS011;42627;42.646;23.642;2023-03-15T10:41:56;7.88;;;2.97;;
56752;SDS011;42627;42.646;23.642;2023-03-15T10:43:58;8.80;;;3.25;;
56752;SDS011;42627;42.646;23.642;2023-03-15T10:48:10;4.20;;;2.05;;
56752;SDS011;42627;42.646;23.642;2023-03-15T10:50:32;2.72;;;1.60;;
56752;SDS011;42627;42.646;23.642;2023-03-15T10:52:34;2.88;;;1.70;;
56752;SDS011;42627;42.646;23.642;2023-03-15T10:54:37;4.22;;;2.05;;
56752;SDS011;42627;42.646;23.642;2023-03-15T10:56:55;7.07;;;3.58;;
56752;SDS011;42627;42.646;23.642;2023-03-15T10:58:59;4.65;;;1.83;;
56752;SDS011;42627;42.646;23.642;2023-03-15T11:01:06;5.03;;;2.17;;
56752;SDS011;42627;42.646;23.642;2023-03-15T11:03:16;4.95;;;1.90;;
56752;SDS011;42627;42.646;23.642;2023-03-15T11:05:17;3.75;;;1.50;;
56752;SDS011;42627;42.646;23.642;2023-03-15T11:07:18;2.78;;;1.50;;
56752;SDS011;42627;42.646;23.642;2023-03-15T11:09:20;4.55;;;1.88;;
56752;SDS011;42627;42.646;23.642;2023-03-15T11:11:22;7.78;;;2.53;;
56752;SDS011;42627;42.646;23.642;2023-03-15T11:13:24;4.85;;;2.45;;
56752;SDS011;42627;42.646;23.642;2023-03-15T11:15:27;8.23;;;3.35;;
56752;SDS011;42627;42.646;23.642;2023-03-15T11:17:30;8.90;;;2.75;;
56752;SDS011;42627;42.646;23.642;2023-03-15T11:19:50;4.60;;;2.00;;
56752;SDS011;42627;42.646;23.642;2023-03-15T11:21:55;3.78;;;1.80;;
56752;SDS011;42627;42.646;23.642;2023-03-15T11:23:59;5.45;;;2.33;;
56752;SDS011;42627;42.646;23.642;2023-03-15T11:26:02;5.55;;;2.60;;
56752;SDS011;42627;42.646;23.642;2023-03-15T11:33:30;8.50;;;2.85;;
56752;SDS011;42627;42.646;23.642;2023-03-15T11:35:39;3.67;;;2.08;;
56752;SDS011;42627;42.646;23.642;2023-03-15T11:37:51;9.60;;;2.80;;
56752;SDS011;42627;42.646;23.642;2023-03-15T11:40:03;3.35;;;1.60;;
56752;SDS011;42627;42.646;23.642;2023-03-15T11:42:17;3.33;;;1.70;;
56752;SDS011;42627;42.646;23.642;2023-03-15T11:46:38;6.45;;;3.10;;
56752;SDS011;42627;42.646;23.642;2023-03-15T11:51:34;4.72;;;1.77;;
56752;SDS011;42627;42.646;23.642;2023-03-15T11:53:37;5.60;;;2.35;;
56752;SDS011;42627;42.646;23.642;2023-03-15T11:55:46;3.67;;;1.60;;
56752;SDS011;42627;42.646;23.642;2023-03-15T11:57:47;4.57;;;1.52;;
56752;SDS011;42627;42.646;23.642;2023-03-15T11:59:48;7.07;;;2.65;;
56752;SDS011;42627;42.646;23.642;2023-03-15T12:02:00;3.17;;;1.67;;
56752;SDS011;42627;42.646;23.642;2023-03-15T12:06:34;3.67;;;1.58;;
56752;SDS011;42627;42.646;23.642;2023-03-15T12:08:40;3.42;;;1.70;;
56752;SDS011;42627;42.646;23.642;2023-03-15T12:10:44;4.45;;;1.60;;
56752;SDS011;42627;42.646;23.642;2023-03-15T12:13:21;4.18;;;1.63;;
56752;SDS011;42627;42.646;23.642;2023-03-15T12:17:58;3.27;;;1.70;;
56752;SDS011;42627;42.646;23.642;2023-03-15T12:24:28;3.28;;;1.52;;
56752;SDS011;42627;42.646;23.642;2023-03-15T12:26:37;3.70;;;1.77;;
56752;SDS011;42627;42.646;23.642;2023-03-15T12:31:22;3.05;;;1.55;;
56752;SDS011;42627;42.646;23.642;2023-03-15T12:33:23;3.47;;;1.88;;
56752;SDS011;42627;42.646;23.642;2023-03-15T12:35:27;3.08;;;1.63;;
56752;SDS011;42627;42.646;23.642;2023-03-15T12:37:48;4.38;;;1.30;;
56752;SDS011;42627;42.646;23.642;2023-03-15T12:39:59;3.13;;;1.42;;
56752;SDS011;42627;42.646;23.642;2023-03-15T12:50:03;2.97;;;1.38;;
56752;SDS011;42627;42.646;23.642;2023-03-15T12:52:39;2.63;;;1.50;;
56752;SDS011;42627;42.646;23.642;2023-03-15T12:54:43;5.80;;;1.95;;
56752;SDS011;42627;42.646;23.642;2023-03-15T12:56:48;5.18;;;1.83;;
56752;SDS011;42627;42.646;23.642;2023-03-15T12:58:54;3.53;;;1.70;;
56752;SDS011;42627;42.646;23.642;2023-03-15T13:01:14;3.83;;;1.55;;
56752;SDS011;42627;42.646;23.642;2023-03-15T13:15:11;5.90;;;2.25;;
56752;SDS011;42627;42.646;23.642;2023-03-15T13:24:31;4.10;;;1.85;;
56752;SDS011;42627;42.646;23.642;2023-03-15T13:29:46;3.35;;;1.70;;
56752;SDS011;42627;42.646;23.642;2023-03-15T13:31:58;4.18;;;1.60;;
56752;SDS011;42627;42.646;23.642;2023-03-15T13:34:19;3.85;;;1.80;;
56752;SDS011;42627;42.646;23.642;2023-03-15T13:36:39;5.07;;;1.90;;
56752;SDS011;42627;42.646;23.642;2023-03-15T13:38:43;3.45;;;1.88;;
56752;SDS011;42627;42.646;23.642;2023-03-15T13:40:46;5.15;;;1.98;;
56752;SDS011;42627;42.646;23.642;2023-03-15T13:42:47;2.35;;;1.20;;
56752;SDS011;42627;42.646;23.642;2023-03-15T13:47:25;3.33;;;1.63;;
56752;SDS011;42627;42.646;23.642;2023-03-15T13:52:03;4.78;;;2.22;;
56752;SDS011;42627;42.646;23.642;2023-03-15T13:56:25;4.13;;;1.90;;
56752;SDS011;42627;42.646;23.642;2023-03-15T13:58:28;4.05;;;1.80;;
56752;SDS011;42627;42.646;23.642;2023-03-15T14:00:30;4.38;;;1.90;;
56752;SDS011;42627;42.646;23.642;2023-03-15T14:04:49;2.50;;;1.55;;
56752;SDS011;42627;42.646;23.642;2023-03-15T14:07:01;2.88;;;1.60;;
56752;SDS011;42627;42.646;23.642;2023-03-15T14:09:24;4.55;;;1.88;;
56752;SDS011;42627;42.646;23.642;2023-03-15T14:11:32;4.50;;;1.87;;
56752;SDS011;42627;42.646;23.642;2023-03-15T14:13:46;5.68;;;1.92;;
56752;SDS011;42627;42.646;23.642;2023-03-15T14:15:55;9.20;;;2.00;;
56752;SDS011;42627;42.646;23.642;2023-03-15T14:23:04;4.53;;;1.90;;
56752;SDS011;42627;42.646;23.642;2023-03-15T14:25:20;4.70;;;2.00;;
56752;SDS011;42627;42.646;23.642;2023-03-15T14:44:35;10.75;;;2.00;;
56752;SDS011;42627;42.646;23.642;2023-03-15T14:46:36;4.20;;;1.80;;
56752;SDS011;42627;42.646;23.642;2023-03-15T14:48:36;6.75;;;1.88;;
56752;SDS011;42627;42.646;23.642;2023-03-15T14:50:38;4.10;;;2.05;;
56752;SDS011;42627;42.646;23.642;2023-03-15T15:05:40;5.53;;;2.05;;